Time;durP1;ratioP1;P1;durP2;ratioP2;P2;SDS_P1;SDS_P2;PMS_P1;PMS_P2;Temp;Humidity;BMP_temperature;BMP_pressure;BME280_temperature;BME280_humidity;BME280_pressure;Samples;Min_cycle;Max_cycle;Signal;HPM_P1;HPM_P2
2024/03/26 00:01:44;;;;;;;60.20;38.40;;;;;;;1.00;85.83;97751.17;435308;1263;99922;-39
2024/03/26 00:11:50;;;;;;;53.90;34.70;;;;;;;1.03;85.99;97756.44;435158;1256;110578;-40
2024/03/26 00:21:57;;;;;;;50.70;31.20;;;;;;;1.00;85.78;97762.08;435098;1256;100601;-40
2024/03/26 00:32:03;;;;;;;60.60;33.00;;;;;;;0.96;86.04;97760.00;435194;1252;113523;-39
2024/03/26 00:42:10;;;;;;;72.30;38.80;;;;;;;0.87;86.29;97762.37;435293;1256;110003;-40
2024/03/26 00:52:16;;;;;;;71.10;37.60;;;;;;;0.85;86.59;97756.08;435296;1255;100587;-39
2024/03/26 01:02:23;;;;;;;56.60;34.10;;;;;;;0.85;86.53;97753.23;435314;1256;108202;-40
2024/03/26 01:12:32;;;;;;;39.90;24.60;;;;;;;0.90;86.50;97744.56;435188;1257;100594;-40
2024/03/26 01:22:39;;;;;;;39.20;23.20;;;;;;;0.98;86.52;97748.56;435302;1257;112442;-40
2024/03/26 01:32:45;;;;;;;57.20;32.60;;;;;;;0.96;86.81;97757.88;435256;1256;108529;-40
2024/03/26 01:42:53;;;;;;;66.70;36.30;;;;;;;0.81;86.79;97768.92;435357;1255;101126;-39
2024/03/26 01:53:00;;;;;;;66.30;37.30;;;;;;;0.61;86.80;97766.89;435365;1256;107944;-40
2024/03/26 02:03:05;;;;;;;63.60;35.30;;;;;;;0.49;86.64;97766.95;435255;1254;99357;-41
2024/03/26 02:13:11;;;;;;;53.20;35.00;;;;;;;0.46;86.75;97772.34;435354;1254;112660;-40
2024/03/26 02:23:20;;;;;;;51.00;31.10;;;;;;;0.50;86.90;97779.25;435190;1257;107408;-39
2024/03/26 02:33:27;;;;;;;70.20;39.90;;;;;;;0.51;86.88;97777.77;435409;1256;99359;-40
2024/03/26 02:43:33;;;;;;;83.00;41.30;;;;;;;0.38;86.93;97779.48;436308;1252;107174;-40
2024/03/26 02:53:39;;;;;;;80.50;42.80;;;;;;;0.21;86.89;97778.55;435362;1251;99942;-40
2024/03/26 03:03:45;;;;;;;59.70;36.70;;;;;;;0.16;86.96;97775.86;435230;1254;113346;-40
2024/03/26 03:13:52;;;;;;;56.40;34.40;;;;;;;0.19;87.02;97781.48;435230;1255;107888;-40
2024/03/26 03:23:58;;;;;;;56.40;37.10;;;;;;;0.20;87.19;97775.65;435309;1256;100598;-40
2024/03/26 03:34:05;;;;;;;72.10;40.10;;;;;;;0.21;87.40;97769.50;435245;1256;108416;-39
2024/03/26 03:44:12;;;;;;;79.30;45.00;;;;;;;0.11;87.57;97773.30;435247;1256;99827;-40
2024/03/26 03:54:19;;;;;;;80.60;42.80;;;;;;;0.01;87.45;97767.23;435381;1256;112194;-40
2024/03/26 04:04:25;;;;;;;66.10;41.50;;;;;;;0.01;87.45;97764.40;435218;1256;109439;-40
2024/03/26 04:14:32;;;;;;;57.30;35.70;;;;;;;-0.01;87.31;97769.16;435308;1251;100636;-39
2024/03/26 04:24:38;;;;;;;61.50;37.00;;;;;;;0.07;87.49;97771.41;435232;1256;106199;-40
2024/03/26 04:34:44;;;;;;;63.40;39.10;;;;;;;0.15;87.70;97768.02;435249;1251;100620;-39
2024/03/26 04:54:56;;;;;;;100.90;54.50;;;;;;;0.23;88.15;97746.70;435383;1257;107998;-41
2024/03/26 05:05:03;;;;;;;101.10;53.90;;;;;;;0.22;87.95;97742.01;435076;1256;100683;-40
2024/03/26 05:15:08;;;;;;;98.50;51.90;;;;;;;0.23;87.80;97744.41;435298;1263;108671;-40
2024/03/26 05:25:15;;;;;;;111.60;66.90;;;;;;;0.45;88.32;97745.90;435273;1257;99336;-40
2024/03/26 05:35:21;;;;;;;89.30;58.70;;;;;;;1.79;90.03;97749.12;435323;1251;113196;-38
2024/03/26 05:45:28;;;;;;;93.20;52.30;;;;;;;3.39;89.64;97751.66;434790;1256;559298;-40
2024/03/26 05:55:34;;;;;;;92.20;51.70;;;;;;;4.31;89.00;97760.48;435258;1257;100575;-40
2024/03/26 06:05:41;;;;;;;88.90;46.60;;;;;;;4.83;88.63;97763.08;435309;1256;107559;-38
2024/03/26 06:15:47;;;;;;;55.70;32.20;;;;;;;5.64;88.36;97768.42;435212;1251;99366;-40
2024/03/26 06:25:53;;;;;;;67.00;35.30;;;;;;;6.45;87.76;97770.50;435194;1257;111996;-40
2024/03/26 06:36:00;;;;;;;62.70;36.90;;;;;;;6.87;86.92;97767.96;435370;1255;107559;-39
2024/03/26 06:46:06;;;;;;;52.30;30.80;;;;;;;7.44;86.70;97771.36;435173;1257;99359;-40
2024/03/26 06:56:13;;;;;;;58.60;35.40;;;;;;;8.42;85.83;97766.77;435219;1251;107468;-40
2024/03/26 07:06:20;;;;;;;52.20;31.50;;;;;;;9.01;84.75;97765.36;435344;1251;99951;-42
2024/03/26 07:16:25;;;;;;;55.60;32.20;;;;;;;9.24;83.09;97771.25;435326;1258;113127;-40
2024/03/26 07:26:32;;;;;;;42.00;26.50;;;;;;;9.62;82.31;97771.36;435335;1254;110429;-40
2024/03/26 07:36:39;;;;;;;37.70;22.00;;;;;;;9.39;79.10;97773.94;435355;1256;99337;-39
2024/03/26 07:46:46;;;;;;;28.50;16.40;;;;;;;8.97;77.40;97762.39;435397;1263;108570;-40
2024/03/26 07:56:53;;;;;;;22.40;14.90;;;;;;;9.19;77.61;97759.66;435170;1258;100567;-40
2024/03/26 08:07:00;;;;;;;18.30;13.40;;;;;;;9.49;76.02;97753.77;435194;1257;113993;-40
2024/03/26 08:17:06;;;;;;;14.60;9.80;;;;;;;9.93;75.93;97728.17;435246;1258;107284;-40
2024/03/26 08:27:13;;;;;;;10.10;7.60;;;;;;;10.16;71.68;97711.83;435159;1254;100686;-40
2024/03/26 08:37:20;;;;;;;9.70;6.60;;;;;;;10.29;69.50;97699.71;435224;1257;107978;-40
2024/03/26 08:47:27;;;;;;;9.60;5.50;;;;;;;10.32;67.09;97683.86;435356;1254;101185;-40
2024/03/26 08:57:47;;;;;;;6.10;4.70;;;;;;;10.64;66.33;97678.56;435310;1258;111909;-39
2024/03/26 09:07:54;;;;;;;8.70;5.40;;;;;;;11.02;66.36;97653.20;435208;1257;108086;-39
2024/03/26 09:18:06;;;;;;;10.40;5.60;;;;;;;11.20;65.62;97633.21;435222;1251;99387;-40
2024/03/26 09:28:13;;;;;;;5.60;4.30;;;;;;;11.33;64.08;97629.20;435174;1257;107198;-40
2024/03/26 09:38:20;;;;;;;6.40;3.70;;;;;;;11.59;62.84;97624.78;435230;1254;99286;-41
2024/03/26 09:48:42;;;;;;;5.30;2.90;;;;;;;11.72;61.03;97611.85;435340;1251;113161;-40
2024/03/26 09:58:49;;;;;;;5.20;3.30;;;;;;;12.05;60.38;97602.75;435319;1257;106560;-40
2024/03/26 10:08:58;;;;;;;6.70;3.40;;;;;;;12.27;59.29;97590.47;435267;1251;99869;-40
2024/03/26 10:19:04;;;;;;;6.30;2.80;;;;;;;12.44;56.16;97586.55;435221;1251;107958;-40
2024/03/26 10:29:11;;;;;;;3.70;3.00;;;;;;;12.64;55.61;97576.02;435299;1254;100687;-42
2024/03/26 10:39:21;;;;;;;5.30;2.60;;;;;;;12.82;53.93;97570.04;435198;1254;112723;-42
2024/03/26 10:49:30;;;;;;;4.20;2.90;;;;;;;12.92;52.02;97564.42;435341;1256;107544;-39
2024/03/26 10:59:35;;;;;;;;;;;;;;;13.12;52.48;97551.15;435287;1254;99378;-39
2024/03/26 11:09:42;;;;;;;3.30;2.20;;;;;;;13.31;50.03;97550.46;435263;1256;107791;-41
2024/03/26 11:19:52;;;;;;;3.00;2.50;;;;;;;13.38;50.64;97539.95;435373;1255;99321;-41
2024/03/26 11:30:00;;;;;;;2.90;1.80;;;;;;;13.49;48.05;97526.30;435471;1256;112886;-44
2024/03/26 11:40:10;;;;;;;4.30;1.90;;;;;;;13.62;48.41;97516.12;435281;1255;107345;-40
2024/03/26 11:50:16;;;;;;;3.80;2.30;;;;;;;13.81;47.36;97498.88;435352;1256;100597;-40
2024/03/26 12:00:26;;;;;;;3.30;2.10;;;;;;;13.77;44.18;97483.60;435281;1256;107992;-41
2024/03/26 12:10:32;;;;;;;6.10;2.10;;;;;;;13.90;45.53;97470.85;435285;1254;100606;-41
2024/03/26 12:20:38;;;;;;;2.90;1.50;;;;;;;13.98;44.90;97456.53;435273;1254;113335;-40
2024/03/26 12:30:45;;;;;;;3.20;2.50;;;;;;;14.05;43.97;97445.05;435260;1255;108900;-40
2024/03/26 12:40:52;;;;;;;4.50;3.10;;;;;;;13.97;43.28;97430.02;435364;1254;99287;-43
2024/03/26 12:50:58;;;;;;;7.90;4.20;;;;;;;14.05;43.06;97417.67;435248;1256;108202;-41
2024/03/26 13:01:06;;;;;;;3.60;2.60;;;;;;;13.92;42.21;97403.86;435242;1255;100742;-40
2024/03/26 13:11:11;;;;;;;2.30;2.10;;;;;;;13.87;41.91;97394.08;435167;1254;112943;-40
2024/03/26 13:21:18;;;;;;;2.90;2.50;;;;;;;13.77;42.11;97376.95;435213;1253;108294;-41
2024/03/26 13:31:25;;;;;;;3.40;1.90;;;;;;;13.88;42.00;97360.76;435261;1250;100674;-40
2024/03/26 13:41:31;;;;;;;2.20;1.50;;;;;;;13.91;41.24;97357.00;435267;1255;107399;-40
2024/03/26 13:51:40;;;;;;;1.60;1.50;;;;;;;14.09;41.61;97338.04;435089;1256;100482;-40
2024/03/26 14:02:01;;;;;;;2.10;1.50;;;;;;;13.91;40.13;97338.09;435270;1254;112112;-41
2024/03/26 14:12:08;;;;;;;3.30;1.60;;;;;;;13.72;41.34;97327.55;435338;1252;107902;-41
2024/03/26 14:22:15;;;;;;;1.70;1.60;;;;;;;13.53;40.93;97319.29;435327;1251;100597;-40
2024/03/26 14:32:22;;;;;;;1.80;1.60;;;;;;;13.41;41.62;97301.45;435355;1254;106793;-42
2024/03/26 14:42:29;;;;;;;3.10;2.10;;;;;;;13.41;41.32;97285.09;435271;1250;100590;-41
2024/03/26 14:52:49;;;;;;;4.10;2.70;;;;;;;13.29;41.21;97266.85;435480;1254;113461;-40
2024/03/26 15:02:55;;;;;;;3.50;1.40;;;;;;;13.22;42.12;97252.13;435195;1256;107415;-40
2024/03/26 15:13:03;;;;;;;7.20;2.10;;;;;;;13.32;41.79;97242.65;435262;1251;99298;-41
2024/03/26 15:23:10;;;;;;;4.10;1.90;;;;;;;13.40;41.21;97234.70;435318;1255;108622;-40
2024/03/26 15:33:16;;;;;;;8.10;3.00;;;;;;;13.48;41.44;97217.67;435280;1255;100588;-40
2024/03/26 15:43:23;;;;;;;3.00;2.10;;;;;;;13.51;41.16;97215.21;435419;1256;113405;-40
2024/03/26 15:53:29;;;;;;;4.30;2.00;;;;;;;13.41;41.18;97208.46;435316;1256;110640;-41
2024/03/26 16:03:36;;;;;;;2.90;2.10;;;;;;;13.18;41.26;97199.94;435363;1254;100591;-40
2024/03/26 16:13:43;;;;;;;7.60;3.80;;;;;;;12.89;41.14;97199.39;435197;1253;108360;-40
2024/03/26 16:23:49;;;;;;;3.70;2.70;;;;;;;12.53;42.36;97197.46;435344;1254;100734;-43
2024/03/26 16:33:56;;;;;;;4.60;3.50;;;;;;;12.18;43.98;97203.36;435111;1254;114994;-40
2024/03/26 16:44:02;;;;;;;12.10;6.10;;;;;;;11.87;44.69;97200.19;435115;1256;107999;-40
2024/03/26 16:54:09;;;;;;;11.10;5.40;;;;;;;11.57;45.43;97195.84;435288;1255;101179;-41
2024/03/26 17:14:21;;;;;;;6.60;4.00;;;;;;;10.99;46.73;97189.01;435336;1251;100591;-40
2024/03/26 17:24:28;;;;;;;5.30;4.30;;;;;;;10.77;47.37;97183.59;435409;1254;114776;-39
2024/03/26 17:34:33;;;;;;;9.00;6.00;;;;;;;10.60;47.89;97180.48;435090;1254;108106;-41
2024/03/26 17:44:40;;;;;;;11.50;7.50;;;;;;;10.43;48.40;97176.41;435086;1251;482806;-40
2024/03/26 17:54:47;;;;;;;17.90;9.80;;;;;;;10.26;49.05;97174.90;435608;1256;107823;-40
2024/03/26 18:04:55;;;;;;;20.40;10.80;;;;;;;10.05;49.68;97178.39;435232;1251;100601;-40
2024/03/26 18:15:01;;;;;;;23.30;11.90;;;;;;;9.84;50.11;97173.95;435280;1255;114522;-42
2024/03/26 18:25:07;;;;;;;27.30;13.70;;;;;;;9.64;50.80;97172.15;435280;1254;107731;-41
2024/03/26 18:35:12;;;;;;;27.30;12.70;;;;;;;9.48;51.59;97176.42;435422;1256;99281;-41
2024/03/26 18:45:18;;;;;;;22.90;12.90;;;;;;;9.36;52.18;97178.90;435135;1255;107926;-39
2024/03/26 18:55:25;;;;;;;16.60;11.00;;;;;;;9.25;52.78;97179.84;435472;1251;100714;-39
2024/03/26 19:05:32;;;;;;;20.10;11.30;;;;;;;9.17;53.27;97179.00;435318;1256;115701;-40
2024/03/26 19:15:45;;;;;;;23.90;11.90;;;;;;;9.06;53.69;97174.27;435345;1256;107839;-40
2024/03/26 19:25:59;;;;;;;17.50;9.90;;;;;;;8.97;54.08;97168.67;435336;1250;99370;-40
2024/03/26 19:36:04;;;;;;;16.20;8.10;;;;;;;8.87;54.28;97162.91;435395;1252;109189;-41
2024/03/26 19:46:13;;;;;;;17.50;8.70;;;;;;;8.77;54.51;97156.05;435486;1253;100559;-40
2024/03/26 19:56:19;;;;;;;31.60;15.70;;;;;;;8.63;54.79;97149.30;435234;1256;113565;-40
2024/03/26 20:06:27;;;;;;;50.40;22.60;;;;;;;8.41;55.21;97142.73;435377;1256;107153;-39
2024/03/26 20:16:34;;;;;;;54.10;22.90;;;;;;;8.16;55.48;97138.84;435289;1254;100581;-40
2024/03/26 20:26:41;;;;;;;50.00;22.20;;;;;;;7.95;55.92;97128.50;435203;1256;107411;-40
2024/03/26 20:36:48;;;;;;;47.40;21.70;;;;;;;7.75;56.42;97128.66;435209;1250;100600;-40
2024/03/26 20:46:54;;;;;;;36.40;17.20;;;;;;;7.52;56.65;97128.64;435322;1254;112174;-40
2024/03/26 20:57:01;;;;;;;50.80;20.70;;;;;;;7.43;57.05;97120.70;435374;1256;109331;-40
2024/03/26 21:07:08;;;;;;;29.00;14.60;;;;;;;7.36;57.33;97114.00;435287;1256;99362;-41
2024/03/26 21:27:21;;;;;;;27.90;13.70;;;;;;;7.11;58.10;97112.54;435269;1256;99693;-40
2024/03/26 21:37:28;;;;;;;28.70;12.50;;;;;;;6.98;58.42;97110.64;435260;1251;112172;-40
2024/03/26 21:47:34;;;;;;;27.30;13.80;;;;;;;6.90;58.89;97106.08;435132;1253;108201;-41
2024/03/26 21:57:42;;;;;;;33.30;16.60;;;;;;;6.84;58.96;97097.58;435423;1253;100614;-41
2024/03/26 22:07:48;;;;;;;38.30;20.00;;;;;;;6.73;59.32;97093.40;435372;1256;108554;-41
2024/03/26 22:17:54;;;;;;;34.90;17.00;;;;;;;6.61;59.60;97085.23;435316;1250;100597;-41
2024/03/26 22:28:01;;;;;;;32.20;16.40;;;;;;;6.49;59.84;97082.08;435410;1252;112019;-40
2024/03/26 22:48:14;;;;;;;39.10;16.20;;;;;;;6.29;60.38;97071.80;435187;1250;100617;-40
2024/03/26 22:58:21;;;;;;;35.50;16.20;;;;;;;6.22;60.67;97065.10;435287;1256;108013;-40
2024/03/26 23:08:28;;;;;;;24.60;12.30;;;;;;;6.17;60.97;97051.05;435271;1253;100565;-40
2024/03/26 23:18:35;;;;;;;28.40;11.90;;;;;;;6.14;61.17;97046.06;435307;1256;112386;-42
2024/03/26 23:28:41;;;;;;;21.90;10.20;;;;;;;6.12;61.23;97033.60;435321;1253;109289;-41
2024/03/26 23:38:47;;;;;;;12.30;6.30;;;;;;;6.20;61.60;97019.33;435216;1256;100578;-41
2024/03/26 23:48:53;;;;;;;23.70;9.50;;;;;;;6.24;61.78;97013.73;435113;1256;109611;-41
2024/03/26 23:59:00;;;;;;;22.40;10.30;;;;;;;6.15;61.90;97002.90;435150;1257;100620;-41
